createdAt,value
2023-11-26T00:01:38.057Z,92421.88
2023-11-26T00:06:44.690Z,92311.84
2023-11-26T00:11:46.580Z,92430.66
2023-11-26T00:16:48.506Z,92415.69
2023-11-26T00:21:50.451Z,92428.16
2023-11-26T00:26:52.662Z,92388.88
2023-11-26T00:31:54.490Z,92422.41
2023-11-26T00:36:56.357Z,92422.47
2023-11-26T00:41:58.224Z,92420.34
2023-11-26T00:47:00.754Z,92420.47
2023-11-26T00:52:03.712Z,92423.38
2023-11-26T00:57:05.736Z,92428.94
2023-11-26T01:02:09.322Z,92426.31
2023-11-26T01:07:12.646Z,92428.41
2023-11-26T01:12:15.190Z,92421.81
2023-11-26T01:17:18.566Z,92408.03
2023-11-26T01:22:20.453Z,92435.03
2023-11-26T01:27:22.531Z,92427.88
2023-11-26T01:32:24.480Z,92422.09
2023-11-26T01:37:26.333Z,92420.50
2023-11-26T01:42:28.216Z,92420.47
2023-11-26T01:47:30.443Z,92419.16
2023-11-26T01:52:32.355Z,92422.63
2023-11-26T01:57:34.245Z,92424.47
2023-11-26T02:02:36.109Z,92420.47
2023-11-26T02:07:40.198Z,92417.00
2023-11-26T02:13:01.435Z,92422.31
2023-11-26T02:18:04.075Z,92398.00
2023-11-26T02:23:09.782Z,92426.31
2023-11-26T02:28:11.617Z,92367.53
2023-11-26T02:33:13.553Z,92410.97
2023-11-26T02:38:15.538Z,92413.31
2023-11-26T02:43:18.359Z,92414.69
2023-11-26T02:48:20.402Z,92413.59
2023-11-26T02:53:22.397Z,92415.44
2023-11-26T02:58:24.295Z,92420.75
2023-11-26T03:03:27.272Z,92396.41
2023-11-26T03:08:34.196Z,92424.19
2023-11-26T03:13:37.235Z,92414.13
2023-11-26T03:18:40.285Z,92377.78
2023-11-26T03:23:42.515Z,92411.72
2023-11-26T03:28:46.343Z,92407.50
2023-11-26T03:33:48.481Z,92404.47
2023-11-26T03:38:50.540Z,92395.28
2023-11-26T03:43:52.428Z,92388.69
2023-11-26T03:48:54.500Z,92381.31
2023-11-26T03:53:56.731Z,92390.84
2023-11-26T03:58:58.523Z,92388.97
2023-11-26T04:04:00.578Z,92401.41
2023-11-26T04:09:05.522Z,92405.06
2023-11-26T04:14:07.374Z,92414.06
2023-11-26T04:19:09.558Z,92414.03
2023-11-26T04:24:14.677Z,92401.53
2023-11-26T04:29:16.514Z,92410.81
2023-11-26T04:34:18.338Z,92415.59
2023-11-26T04:39:20.540Z,92412.97
2023-11-26T04:44:23.206Z,92411.94
2023-11-26T04:49:25.178Z,92408.22
2023-11-26T04:54:28.186Z,92400.44
2023-11-26T04:59:30.090Z,92401.25
2023-11-26T05:04:31.968Z,92412.22
2023-11-26T05:09:33.969Z,92422.09
2023-11-26T05:14:35.858Z,92423.06
2023-11-26T05:19:37.621Z,92427.50
2023-11-26T05:24:39.452Z,92426.50
2023-11-26T05:29:41.275Z,92439.06
2023-11-26T05:34:43.067Z,92446.16
2023-11-26T05:39:45.111Z,92442.47
2023-11-26T05:44:46.878Z,92448.00
2023-11-26T05:49:48.700Z,92454.09
2023-11-26T05:54:50.524Z,92452.06
2023-11-26T05:59:52.637Z,92443.06
2023-11-26T06:04:54.461Z,92442.28
2023-11-26T06:09:56.465Z,92449.66
2023-11-26T06:14:58.320Z,92452.81
2023-11-26T06:20:00.422Z,92458.03
2023-11-26T06:25:02.723Z,92403.25
2023-11-26T06:30:07.079Z,92400.59
2023-11-26T06:35:10.084Z,92446.97
2023-11-26T06:40:13.326Z,92448.22
2023-11-26T06:45:15.196Z,92450.09
2023-11-26T06:50:17.626Z,92454.94
2023-11-26T06:55:19.777Z,92453.94
2023-11-26T07:00:21.757Z,92450.50
2023-11-26T07:05:23.697Z,92461.31
2023-11-26T07:10:25.577Z,92436.16
2023-11-26T07:15:27.387Z,92456.81
2023-11-26T07:20:29.260Z,92463.75
2023-11-26T07:25:31.141Z,92453.34
2023-11-26T07:30:33.016Z,92448.06
2023-11-26T07:35:35.253Z,92443.06
2023-11-26T07:40:37.137Z,92448.63
2023-11-26T07:45:39.377Z,92453.94
2023-11-26T07:50:41.557Z,92453.84
2023-11-26T07:55:43.430Z,92460.44
2023-11-26T08:00:45.358Z,92462.09
2023-11-26T08:05:50.916Z,92462.38
2023-11-26T08:10:53.647Z,92441.78
2023-11-26T08:15:57.875Z,92452.66
2023-11-26T08:21:03.051Z,92459.31
2023-11-26T08:26:13.127Z,92454.44
2023-11-26T08:31:17.321Z,92459.03
2023-11-26T08:36:19.901Z,92461.13
2023-11-26T08:41:22.782Z,92458.00
2023-11-26T08:46:27.400Z,92459.88
2023-11-26T08:51:33.417Z,92456.38
2023-11-26T08:56:35.284Z,92461.69
2023-11-26T09:01:38.945Z,92457.50
2023-11-26T09:06:41.057Z,92451.97
2023-11-26T09:11:43.357Z,92425.00
2023-11-26T09:16:45.257Z,92441.13
2023-11-26T09:21:50.808Z,92430.25
2023-11-26T09:26:52.686Z,92434.19
2023-11-26T09:31:54.496Z,92425.75
2023-11-26T09:36:59.317Z,92430.97
2023-11-26T09:42:04.976Z,92426.94
2023-11-26T09:47:06.931Z,92427.25
2023-11-26T09:52:09.573Z,92426.88
2023-11-26T09:57:12.359Z,92433.03
2023-11-26T10:02:14.832Z,92442.81
2023-11-26T10:07:18.974Z,92450.59
2023-11-26T10:12:20.876Z,92457.53
2023-11-26T10:17:23.680Z,92455.91
2023-11-26T10:22:45.144Z,92460.69
2023-11-26T10:27:47.701Z,92439.56
2023-11-26T10:32:57.735Z,92444.28
2023-11-26T10:38:12.111Z,92440.06
2023-11-26T10:43:14.821Z,92434.88
2023-11-26T10:48:20.433Z,92418.69
2023-11-26T10:53:43.068Z,92413.28
2023-11-26T10:58:50.053Z,92426.72
2023-11-26T11:03:53.346Z,92405.25
2023-11-26T11:08:57.701Z,92415.56
2023-11-26T11:14:00.448Z,92400.56
2023-11-26T11:19:02.822Z,92408.34
2023-11-26T11:24:19.896Z,92405.13
2023-11-26T11:29:35.358Z,92420.16
2023-11-26T11:34:37.197Z,92399.44
2023-11-26T11:39:48.651Z,92354.28
2023-11-26T11:44:51.184Z,92403.25
2023-11-26T11:49:57.464Z,92404.78
2023-11-26T11:55:28.178Z,92407.09
2023-11-26T12:00:30.823Z,92393.28
2023-11-26T12:05:32.962Z,92386.97
2023-11-26T12:10:34.901Z,92363.81
2023-11-26T12:15:40.263Z,92362.53
2023-11-26T12:20:47.934Z,92375.16
2023-11-26T12:25:53.803Z,92374.41
2023-11-26T12:30:57.691Z,92372.13
2023-11-26T12:35:59.579Z,92359.75
2023-11-26T12:41:02.071Z,92364.16
2023-11-26T12:46:11.440Z,92373.41
2023-11-26T12:51:17.848Z,92364.63
2023-11-26T12:56:23.434Z,92373.88
2023-11-26T13:01:26.466Z,92367.22
2023-11-26T13:06:31.032Z,92355.50
2023-11-26T13:11:37.665Z,92329.84
2023-11-26T13:16:44.448Z,92341.00
2023-11-26T13:21:49.106Z,92300.28
2023-11-26T13:26:51.360Z,92319.97
2023-11-26T13:31:53.160Z,92329.25
2023-11-26T13:36:55.077Z,92306.47
2023-11-26T13:41:56.960Z,92313.44
2023-11-26T13:46:59.593Z,92317.50
2023-11-26T13:52:01.959Z,92304.53
2023-11-26T13:57:04.042Z,92317.47
2023-11-26T14:02:06.344Z,92312.53
2023-11-26T14:07:08.355Z,92327.38
2023-11-26T14:12:11.580Z,92281.28
2023-11-26T14:17:13.389Z,92319.75
2023-11-26T14:22:15.246Z,92325.28
2023-11-26T14:27:17.125Z,92304.06
2023-11-26T14:32:19.205Z,92315.88
2023-11-26T14:37:22.098Z,92316.81
2023-11-26T14:42:23.946Z,92318.19
2023-11-26T14:47:25.819Z,92325.44
2023-11-26T14:52:29.264Z,92320.38
2023-11-26T14:57:31.341Z,92330.88
2023-11-26T15:02:34.325Z,92320.16
2023-11-26T15:07:36.250Z,92316.66
2023-11-26T15:12:38.396Z,92309.44
2023-11-26T15:17:42.292Z,92304.84
2023-11-26T15:22:44.305Z,92313.97
2023-11-26T15:27:46.224Z,92314.53
2023-11-26T15:32:48.103Z,92314.41
2023-11-26T15:37:51.063Z,92315.97
2023-11-26T15:42:53.629Z,92313.16
2023-11-26T15:47:55.508Z,92298.59
2023-11-26T15:52:57.397Z,92311.53
2023-11-26T15:57:59.564Z,92317.13
2023-11-26T16:03:01.555Z,92317.81
2023-11-26T16:08:03.942Z,92322.63
2023-11-26T16:13:06.123Z,92286.66
2023-11-26T16:18:08.157Z,92328.63
2023-11-26T16:23:10.267Z,92321.66
2023-11-26T16:28:12.263Z,92326.56
2023-11-26T16:33:15.322Z,92335.75
2023-11-26T16:38:17.196Z,92333.97
2023-11-26T16:43:20.304Z,92343.34
2023-11-26T16:48:22.887Z,92336.72
2023-11-26T16:53:24.748Z,92336.38
2023-11-26T16:58:26.680Z,92332.13
2023-11-26T17:03:28.656Z,92333.00
2023-11-26T17:08:30.789Z,92334.38
2023-11-26T17:13:32.685Z,92328.38
2023-11-26T17:18:35.063Z,92337.97
2023-11-26T17:23:37.117Z,92329.88
2023-11-26T17:28:42.253Z,92320.16
2023-11-26T17:33:44.130Z,92334.34
2023-11-26T17:38:45.984Z,92325.03
2023-11-26T17:43:47.859Z,92320.91
2023-11-26T17:48:51.179Z,92317.28
2023-11-26T17:53:53.445Z,92324.00
2023-11-26T17:58:55.376Z,92328.31
2023-11-26T18:03:57.347Z,92336.94
2023-11-26T18:08:59.231Z,92317.06
2023-11-26T18:14:06.226Z,92324.47
2023-11-26T18:19:08.105Z,92332.72
2023-11-26T18:24:10.731Z,92325.47
2023-11-26T18:29:13.024Z,92302.59
2023-11-26T18:34:16.293Z,92326.06
2023-11-26T18:39:19.820Z,92318.72
2023-11-26T18:44:21.926Z,92316.50
2023-11-26T18:49:24.001Z,92337.97
2023-11-26T18:54:25.955Z,92339.94
2023-11-26T18:59:27.832Z,92301.31
2023-11-26T19:04:29.690Z,92340.47
2023-11-26T19:09:31.555Z,92338.13
2023-11-26T19:14:34.566Z,92319.34
2023-11-26T19:19:36.423Z,92302.97
2023-11-26T19:24:38.480Z,92295.56
2023-11-26T19:29:40.539Z,92302.31
2023-11-26T19:34:42.457Z,92298.44
2023-11-26T19:39:44.667Z,92293.25
2023-11-26T19:44:46.594Z,92293.28
2023-11-26T19:49:48.498Z,92292.31
2023-11-26T19:54:50.409Z,92299.66
2023-11-26T19:59:52.271Z,92269.22
2023-11-26T20:04:54.128Z,92307.63
2023-11-26T20:09:55.992Z,92301.25
2023-11-26T20:14:58.160Z,92314.19
2023-11-26T20:20:00.301Z,92319.50
2023-11-26T20:25:03.670Z,92306.75
2023-11-26T20:30:06.279Z,92301.59
2023-11-26T20:35:08.711Z,92293.47
2023-11-26T20:40:11.421Z,92279.41
2023-11-26T20:45:15.075Z,92275.47
2023-11-26T20:50:17.916Z,92250.16
2023-11-26T20:55:19.971Z,92264.97
2023-11-26T21:00:22.411Z,92255.50
2023-11-26T21:05:24.221Z,92246.94
2023-11-26T21:10:26.011Z,92226.06
2023-11-26T21:15:29.575Z,92238.03
2023-11-26T21:20:31.605Z,92232.25
2023-11-26T21:25:33.470Z,92228.28
2023-11-26T21:30:35.376Z,92221.88
2023-11-26T21:35:37.267Z,92214.34
2023-11-26T21:40:40.958Z,92222.91
2023-11-26T21:45:44.157Z,92224.03
2023-11-26T21:50:46.977Z,92212.53
2023-11-26T21:55:48.846Z,92207.13
2023-11-26T22:00:50.741Z,92194.75
2023-11-26T22:05:52.612Z,92189.19
2023-11-26T22:10:54.542Z,92181.22
2023-11-26T22:15:56.477Z,92196.53
2023-11-26T22:20:58.328Z,92187.72
2023-11-26T22:26:00.193Z,92184.75
2023-11-26T22:31:02.142Z,92144.78
2023-11-26T22:36:04.380Z,92187.03
2023-11-26T22:41:06.379Z,92164.25
2023-11-26T22:46:17.114Z,92150.63
2023-11-26T22:51:19.797Z,92143.53
2023-11-26T22:56:22.459Z,92157.47
2023-11-26T23:01:24.802Z,92125.25
2023-11-26T23:06:26.865Z,92126.25
2023-11-26T23:11:28.735Z,92144.09
2023-11-26T23:16:30.949Z,92153.53
2023-11-26T23:21:32.805Z,92159.16
2023-11-26T23:26:35.602Z,92160.78
2023-11-26T23:31:37.500Z,92133.41
2023-11-26T23:36:39.374Z,92166.59
2023-11-26T23:41:41.880Z,92134.28
2023-11-26T23:46:43.785Z,92161.19
2023-11-26T23:51:45.733Z,92129.72
2023-11-26T23:56:47.579Z,92165.38
